sensor_id;sensor_type;location;lat;lon;timestamp;pressure;altitude;pressure_sealevel;temperature;humidity
56074;BME280;41950;55.840;37.442;2023-07-09T00:02:14;99402.91;;;16.96;78.20
56074;BME280;41950;55.840;37.442;2023-07-09T00:04:40;99407.38;;;16.94;78.32
56074;BME280;41950;55.840;37.442;2023-07-09T00:07:14;99382.53;;;16.84;78.47
56074;BME280;41950;55.840;37.442;2023-07-09T00:09:41;99362.38;;;16.65;78.94
56074;BME280;41950;55.840;37.442;2023-07-09T00:12:12;99377.91;;;16.70;79.15
56074;BME280;41950;55.840;37.442;2023-07-09T00:14:38;99353.41;;;16.52;79.38
56074;BME280;41950;55.840;37.442;2023-07-09T00:17:26;99388.22;;;16.75;79.13
56074;BME280;41950;55.840;37.442;2023-07-09T00:19:53;99390.97;;;16.72;79.53
56074;BME280;41950;55.840;37.442;2023-07-09T00:22:19;99407.75;;;16.67;80.02
56074;BME280;41950;55.840;37.442;2023-07-09T00:24:50;99395.81;;;16.60;80.25
56074;BME280;41950;55.840;37.442;2023-07-09T00:27:19;99395.81;;;16.60;80.36
56074;BME280;41950;55.840;37.442;2023-07-09T00:29:46;99371.06;;;16.49;80.37
56074;BME280;41950;55.840;37.442;2023-07-09T00:32:13;99383.63;;;16.59;80.37
56074;BME280;41950;55.840;37.442;2023-07-09T00:34:41;99382.09;;;16.55;80.62
56074;BME280;41950;55.840;37.442;2023-07-09T00:37:11;99388.19;;;16.56;80.87
56074;BME280;41950;55.840;37.442;2023-07-09T00:39:38;99385.00;;;16.49;80.95
56074;BME280;41950;55.840;37.442;2023-07-09T00:42:08;99381.94;;;16.39;81.54
56074;BME280;41950;55.840;37.442;2023-07-09T00:44:36;99388.75;;;16.44;81.14
56074;BME280;41950;55.840;37.442;2023-07-09T00:47:28;99392.16;;;16.46;81.04
56074;BME280;41950;55.840;37.442;2023-07-09T00:53:08;99380.22;;;16.38;81.21
56074;BME280;41950;55.840;37.442;2023-07-09T00:55:42;99374.06;;;16.39;81.30
56074;BME280;41950;55.840;37.442;2023-07-09T00:58:11;99345.84;;;16.27;81.45
56074;BME280;41950;55.840;37.442;2023-07-09T01:00:43;99361.25;;;16.33;81.69
56074;BME280;41950;55.840;37.442;2023-07-09T01:03:21;99369.34;;;16.29;82.01
56074;BME280;41950;55.840;37.442;2023-07-09T01:05:49;99358.94;;;16.27;82.18
56074;BME280;41950;55.840;37.442;2023-07-09T01:08:18;99358.94;;;16.27;82.26
56074;BME280;41950;55.840;37.442;2023-07-09T01:10:45;99362.41;;;16.28;82.41
56074;BME280;41950;55.840;37.442;2023-07-09T01:13:10;99337.69;;;16.15;82.70
56074;BME280;41950;55.840;37.442;2023-07-09T01:15:36;99348.69;;;16.23;82.62
56074;BME280;41950;55.840;37.442;2023-07-09T01:18:03;99312.00;;;16.04;82.35
56074;BME280;41950;55.840;37.442;2023-07-09T01:20:30;99343.59;;;16.20;82.52
56074;BME280;41950;55.840;37.442;2023-07-09T01:22:56;99357.09;;;16.29;82.31
56074;BME280;41950;55.840;37.442;2023-07-09T01:25:24;99343.50;;;16.21;82.04
56074;BME280;41950;55.840;37.442;2023-07-09T01:27:50;99352.91;;;16.25;81.85
56074;BME280;41950;55.840;37.442;2023-07-09T01:30:36;99349.25;;;16.29;82.33
56074;BME280;41950;55.840;37.442;2023-07-09T01:33:02;99342.38;;;16.27;82.38
56074;BME280;41950;55.840;37.442;2023-07-09T01:35:30;99335.50;;;16.24;82.49
56074;BME280;41950;55.840;37.442;2023-07-09T01:37:57;99350.94;;;16.30;82.56
56074;BME280;41950;55.840;37.442;2023-07-09T01:40:24;99351.50;;;16.37;82.54
56074;BME280;41950;55.840;37.442;2023-07-09T01:42:53;99343.84;;;16.32;82.58
56074;BME280;41950;55.840;37.442;2023-07-09T01:45:21;99345.56;;;16.33;82.60
56074;BME280;41950;55.840;37.442;2023-07-09T01:47:47;99353.13;;;16.39;82.52
56074;BME280;41950;55.840;37.442;2023-07-09T01:50:13;99348.25;;;16.32;82.50
56074;BME280;41950;55.840;37.442;2023-07-09T01:52:41;99354.72;;;16.44;82.50
56074;BME280;41950;55.840;37.442;2023-07-09T01:55:12;99350.66;;;16.36;82.44
56074;BME280;41950;55.840;37.442;2023-07-09T01:57:38;99355.56;;;16.44;82.35
56074;BME280;41950;55.840;37.442;2023-07-09T02:00:08;99296.63;;;16.15;82.55
56074;BME280;41950;55.840;37.442;2023-07-09T02:02:35;99317.81;;;16.29;82.59
56074;BME280;41950;55.840;37.442;2023-07-09T02:05:01;99346.63;;;16.48;82.56
56074;BME280;41950;55.840;37.442;2023-07-09T02:07:29;99363.75;;;16.55;82.23
56074;BME280;41950;55.840;37.442;2023-07-09T02:09:54;99361.06;;;16.57;82.11
56074;BME280;41950;55.840;37.442;2023-07-09T02:12:20;99343.72;;;16.54;82.24
56074;BME280;41950;55.840;37.442;2023-07-09T02:14:46;99341.94;;;16.55;81.91
56074;BME280;41950;55.840;37.442;2023-07-09T02:17:14;99339.94;;;16.60;81.89
56074;BME280;41950;55.840;37.442;2023-07-09T02:19:40;99346.63;;;16.67;81.81
56074;BME280;41950;55.840;37.442;2023-07-09T02:22:06;99327.91;;;16.56;81.57
56074;BME280;41950;55.840;37.442;2023-07-09T02:24:32;99324.94;;;16.63;81.45
56074;BME280;41950;55.840;37.442;2023-07-09T02:26:59;99306.41;;;16.49;80.84
56074;BME280;41950;55.840;37.442;2023-07-09T02:29:26;99346.13;;;16.78;80.62
56074;BME280;41950;55.840;37.442;2023-07-09T02:31:53;99341.59;;;16.81;80.40
56074;BME280;41950;55.840;37.442;2023-07-09T02:34:19;99343.13;;;16.85;80.34
56074;BME280;41950;55.840;37.442;2023-07-09T02:36:46;99340.28;;;16.90;80.24
56074;BME280;41950;55.840;37.442;2023-07-09T02:39:13;99348.06;;;16.91;79.99
56074;BME280;41950;55.840;37.442;2023-07-09T02:41:40;99306.28;;;16.71;79.79
56074;BME280;41950;55.840;37.442;2023-07-09T02:44:07;99344.25;;;16.98;79.70
56074;BME280;41950;55.840;37.442;2023-07-09T02:46:33;99322.56;;;16.95;79.18
56074;BME280;41950;55.840;37.442;2023-07-09T02:49:00;99312.22;;;16.92;79.47
56074;BME280;41950;55.840;37.442;2023-07-09T02:51:26;99337.41;;;17.13;78.82
56074;BME280;41950;55.840;37.442;2023-07-09T02:53:56;99344.19;;;17.17;78.53
56074;BME280;41950;55.840;37.442;2023-07-09T02:56:23;99337.94;;;17.20;78.38
56074;BME280;41950;55.840;37.442;2023-07-09T02:58:50;99326.91;;;17.13;77.67
56074;BME280;41950;55.840;37.442;2023-07-09T03:01:16;99332.44;;;17.24;77.37
56074;BME280;41950;55.840;37.442;2023-07-09T03:03:43;99332.41;;;17.26;76.83
56074;BME280;41950;55.840;37.442;2023-07-09T03:06:09;99343.19;;;17.37;76.76
56074;BME280;41950;55.840;37.442;2023-07-09T03:08:35;99333.31;;;17.42;76.35
56074;BME280;41950;55.840;37.442;2023-07-09T03:11:09;99314.34;;;17.37;76.21
56074;BME280;41950;55.840;37.442;2023-07-09T03:13:35;99321.19;;;17.40;76.09
56074;BME280;41950;55.840;37.442;2023-07-09T03:16:01;99285.03;;;17.29;75.45
56074;BME280;41950;55.840;37.442;2023-07-09T03:18:27;99289.13;;;17.35;75.33
56074;BME280;41950;55.840;37.442;2023-07-09T03:20:52;99303.03;;;17.52;75.17
56074;BME280;41950;55.840;37.442;2023-07-09T03:23:18;99329.06;;;17.74;75.12
56074;BME280;41950;55.840;37.442;2023-07-09T03:25:44;99310.38;;;17.63;74.93
56074;BME280;41950;55.840;37.442;2023-07-09T03:28:11;99313.22;;;17.76;74.91
56074;BME280;41950;55.840;37.442;2023-07-09T03:30:45;99274.50;;;17.64;74.75
56074;BME280;41950;55.840;37.442;2023-07-09T03:33:12;99287.63;;;17.81;74.56
56074;BME280;41950;55.840;37.442;2023-07-09T03:35:38;99303.72;;;17.90;74.19
56074;BME280;41950;55.840;37.442;2023-07-09T03:38:05;99321.97;;;18.09;73.94
56074;BME280;41950;55.840;37.442;2023-07-09T03:40:31;99332.06;;;18.17;72.90
56074;BME280;41950;55.840;37.442;2023-07-09T03:42:58;99306.13;;;18.11;72.32
56074;BME280;41950;55.840;37.442;2023-07-09T03:45:23;99307.47;;;18.18;71.74
56074;BME280;41950;55.840;37.442;2023-07-09T03:47:49;99328.50;;;18.34;71.92
56074;BME280;41950;55.840;37.442;2023-07-09T03:50:15;99301.97;;;18.22;71.74
56074;BME280;41950;55.840;37.442;2023-07-09T03:52:41;99328.94;;;18.42;72.00
56074;BME280;41950;55.840;37.442;2023-07-09T03:55:08;99315.22;;;18.37;71.79
56074;BME280;41950;55.840;37.442;2023-07-09T03:57:34;99322.75;;;18.43;71.38
56074;BME280;41950;55.840;37.442;2023-07-09T04:00:01;99306.16;;;18.42;71.47
56074;BME280;41950;55.840;37.442;2023-07-09T04:02:31;99325.09;;;18.65;70.97
56074;BME280;41950;55.840;37.442;2023-07-09T04:04:56;99294.09;;;18.54;71.11
56074;BME280;41950;55.840;37.442;2023-07-09T04:07:22;99310.56;;;18.73;70.63
56074;BME280;41950;55.840;37.442;2023-07-09T04:09:48;99296.50;;;18.74;69.93
56074;BME280;41950;55.840;37.442;2023-07-09T04:12:14;99329.38;;;18.97;70.05
56074;BME280;41950;55.840;37.442;2023-07-09T04:14:40;99309.69;;;18.89;69.99
56074;BME280;41950;55.840;37.442;2023-07-09T04:17:08;99323.25;;;18.97;69.96
56074;BME280;41950;55.840;37.442;2023-07-09T04:19:34;99308.75;;;18.90;70.11
56074;BME280;41950;55.840;37.442;2023-07-09T04:22:00;99322.81;;;19.04;70.37
56074;BME280;41950;55.840;37.442;2023-07-09T04:24:25;99324.69;;;19.02;69.84
56074;BME280;41950;55.840;37.442;2023-07-09T04:26:52;99308.41;;;18.96;68.84
56074;BME280;41950;55.840;37.442;2023-07-09T04:29:22;99308.81;;;19.04;67.97
56074;BME280;41950;55.840;37.442;2023-07-09T04:31:48;99323.44;;;19.24;68.06
56074;BME280;41950;55.840;37.442;2023-07-09T04:34:14;99313.00;;;19.22;67.93
56074;BME280;41950;55.840;37.442;2023-07-09T04:36:40;99320.94;;;19.36;65.84
56074;BME280;41950;55.840;37.442;2023-07-09T04:39:06;99309.88;;;19.45;63.79
56074;BME280;41950;55.840;37.442;2023-07-09T04:41:32;99302.66;;;19.49;62.84
56074;BME280;41950;55.840;37.442;2023-07-09T04:43:58;99318.69;;;19.74;63.01
56074;BME280;41950;55.840;37.442;2023-07-09T04:46:24;99315.59;;;19.82;62.17
56074;BME280;41950;55.840;37.442;2023-07-09T04:48:50;99309.09;;;19.88;61.74
56074;BME280;41950;55.840;37.442;2023-07-09T04:51:15;99307.78;;;19.95;61.76
56074;BME280;41950;55.840;37.442;2023-07-09T04:53:41;99291.97;;;19.95;60.73
56074;BME280;41950;55.840;37.442;2023-07-09T04:56:07;99280.13;;;20.02;60.47
56074;BME280;41950;55.840;37.442;2023-07-09T04:58:34;99263.63;;;19.98;58.67
56074;BME280;41950;55.840;37.442;2023-07-09T05:01:01;99281.88;;;20.16;58.21
56074;BME280;41950;55.840;37.442;2023-07-09T05:03:26;99279.81;;;20.21;57.51
56074;BME280;41950;55.840;37.442;2023-07-09T05:05:52;99280.53;;;20.23;57.65
56074;BME280;41950;55.840;37.442;2023-07-09T05:08:18;99286.19;;;20.31;57.06
56074;BME280;41950;55.840;37.442;2023-07-09T05:10:46;99286.75;;;20.36;56.89
56074;BME280;41950;55.840;37.442;2023-07-09T05:13:12;99290.97;;;20.38;55.98
56074;BME280;41950;55.840;37.442;2023-07-09T05:15:43;99297.78;;;20.43;55.10
56074;BME280;41950;55.840;37.442;2023-07-09T05:18:13;99283.00;;;20.40;54.26
56074;BME280;41950;55.840;37.442;2023-07-09T05:20:40;99249.41;;;20.29;54.05
56074;BME280;41950;55.840;37.442;2023-07-09T05:23:09;99296.34;;;20.51;53.63
56074;BME280;41950;55.840;37.442;2023-07-09T05:25:35;99259.84;;;20.31;52.37
56074;BME280;41950;55.840;37.442;2023-07-09T05:28:01;99263.69;;;20.40;52.90
56074;BME280;41950;55.840;37.442;2023-07-09T05:30:28;99178.06;;;19.91;52.66
56074;BME280;41950;55.840;37.442;2023-07-09T05:32:53;99286.06;;;20.61;52.59
56074;BME280;41950;55.840;37.442;2023-07-09T05:35:21;99280.38;;;20.67;53.35
56074;BME280;41950;55.840;37.442;2023-07-09T05:37:47;99259.06;;;20.57;53.45
56074;BME280;41950;55.840;37.442;2023-07-09T05:40:12;99284.41;;;20.73;52.61
56074;BME280;41950;55.840;37.442;2023-07-09T05:42:38;99263.72;;;20.66;51.43
56074;BME280;41950;55.840;37.442;2023-07-09T05:45:04;99273.34;;;20.80;51.71
56074;BME280;41950;55.840;37.442;2023-07-09T05:47:31;99258.25;;;20.70;52.45
56074;BME280;41950;55.840;37.442;2023-07-09T05:49:56;99283.22;;;20.91;51.51
56074;BME280;41950;55.840;37.442;2023-07-09T05:52:23;99273.41;;;20.93;50.13
56074;BME280;41950;55.840;37.442;2023-07-09T05:54:50;99284.19;;;21.03;50.06
56074;BME280;41950;55.840;37.442;2023-07-09T05:57:17;99277.09;;;21.03;48.57
56074;BME280;41950;55.840;37.442;2023-07-09T05:59:43;99287.81;;;21.14;47.70
56074;BME280;41950;55.840;37.442;2023-07-09T06:02:13;99276.31;;;21.15;46.97
56074;BME280;41950;55.840;37.442;2023-07-09T06:04:39;99233.53;;;20.97;46.87
56074;BME280;41950;55.840;37.442;2023-07-09T06:07:05;99277.72;;;21.34;47.15
56074;BME280;41950;55.840;37.442;2023-07-09T06:09:31;99257.75;;;21.29;46.45
56074;BME280;41950;55.840;37.442;2023-07-09T06:11:57;99278.28;;;21.39;45.81
56074;BME280;41950;55.840;37.442;2023-07-09T06:14:24;99271.09;;;21.41;45.59
56074;BME280;41950;55.840;37.442;2023-07-09T06:16:49;99273.41;;;21.45;45.73
56074;BME280;41950;55.840;37.442;2023-07-09T06:19:15;99276.78;;;21.47;47.58
56074;BME280;41950;55.840;37.442;2023-07-09T06:21:41;99275.41;;;21.54;48.59
56074;BME280;41950;55.840;37.442;2023-07-09T06:24:08;99267.59;;;21.53;48.37
56074;BME280;41950;55.840;37.442;2023-07-09T06:26:34;99270.97;;;21.55;46.51
56074;BME280;41950;55.840;37.442;2023-07-09T06:29:00;99272.03;;;21.52;45.48
56074;BME280;41950;55.840;37.442;2023-07-09T06:31:25;99270.88;;;21.56;45.33
56074;BME280;41950;55.840;37.442;2023-07-09T06:33:51;99265.09;;;21.64;45.45
56074;BME280;41950;55.840;37.442;2023-07-09T06:36:18;99252.50;;;21.68;46.03
56074;BME280;41950;55.840;37.442;2023-07-09T06:38:45;99270.22;;;21.78;46.28
56074;BME280;41950;55.840;37.442;2023-07-09T06:41:11;99264.84;;;21.80;45.75
56074;BME280;41950;55.840;37.442;2023-07-09T06:43:37;99260.28;;;21.82;45.27
56074;BME280;41950;55.840;37.442;2023-07-09T06:46:05;99261.88;;;21.84;44.55
56074;BME280;41950;55.840;37.442;2023-07-09T06:48:31;99251.09;;;21.87;44.36
56074;BME280;41950;55.840;37.442;2023-07-09T06:50:58;99251.53;;;21.94;44.21
56074;BME280;41950;55.840;37.442;2023-07-09T06:53:24;99233.88;;;21.95;45.48
56074;BME280;41950;55.840;37.442;2023-07-09T06:55:51;99215.50;;;21.93;45.25
56074;BME280;41950;55.840;37.442;2023-07-09T06:58:21;99250.25;;;22.36;45.30
56074;BME280;41950;55.840;37.442;2023-07-09T07:00:48;99247.16;;;22.42;44.82
56074;BME280;41950;55.840;37.442;2023-07-09T07:03:15;99240.72;;;22.46;43.84
56074;BME280;41950;55.840;37.442;2023-07-09T07:05:48;99237.06;;;22.60;43.89
56074;BME280;41950;55.840;37.442;2023-07-09T07:08:20;99230.84;;;22.72;43.98
56074;BME280;41950;55.840;37.442;2023-07-09T07:10:50;99216.63;;;22.86;44.21
56074;BME280;41950;55.840;37.442;2023-07-09T07:13:16;99197.88;;;23.00;44.08
56074;BME280;41950;55.840;37.442;2023-07-09T07:15:47;99219.63;;;23.39;43.81
56074;BME280;41950;55.840;37.442;2023-07-09T07:18:15;99216.44;;;23.58;43.00
56074;BME280;41950;55.840;37.442;2023-07-09T07:20:40;99210.66;;;23.64;41.88
56074;BME280;41950;55.840;37.442;2023-07-09T07:23:06;99217.75;;;23.74;41.57
56074;BME280;41950;55.840;37.442;2023-07-09T07:25:32;99213.66;;;23.82;40.89
56074;BME280;41950;55.840;37.442;2023-07-09T07:27:58;99218.50;;;23.88;41.90
56074;BME280;41950;55.840;37.442;2023-07-09T07:30:24;99219.81;;;23.93;41.37
56074;BME280;41950;55.840;37.442;2023-07-09T07:32:50;99213.66;;;23.93;42.20
56074;BME280;41950;55.840;37.442;2023-07-09T07:35:16;99208.09;;;23.96;42.70
56074;BME280;41950;55.840;37.442;2023-07-09T07:37:42;99209.91;;;23.95;41.53
56074;BME280;41950;55.840;37.442;2023-07-09T07:40:09;99207.75;;;23.89;42.16
56074;BME280;41950;55.840;37.442;2023-07-09T07:42:35;99208.59;;;23.90;40.56
56074;BME280;41950;55.840;37.442;2023-07-09T07:45:02;99200.91;;;23.87;39.87
56074;BME280;41950;55.840;37.442;2023-07-09T07:47:30;99182.97;;;23.68;40.68
56074;BME280;41950;55.840;37.442;2023-07-09T07:49:56;99203.53;;;23.76;39.63
56074;BME280;41950;55.840;37.442;2023-07-09T07:52:23;99209.22;;;23.71;38.70
56074;BME280;41950;55.840;37.442;2023-07-09T07:54:49;99205.97;;;23.56;38.41
56074;BME280;41950;55.840;37.442;2023-07-09T07:57:14;99183.66;;;23.48;39.39
56074;BME280;41950;55.840;37.442;2023-07-09T07:59:40;99198.13;;;23.66;39.20
56074;BME280;41950;55.840;37.442;2023-07-09T08:02:10;99200.41;;;23.70;39.09
56074;BME280;41950;55.840;37.442;2023-07-09T08:04:38;99194.50;;;23.78;39.16
56074;BME280;41950;55.840;37.442;2023-07-09T08:07:04;99192.31;;;23.94;39.27
56074;BME280;41950;55.840;37.442;2023-07-09T08:09:30;99194.22;;;24.03;38.80
56074;BME280;41950;55.840;37.442;2023-07-09T08:11:56;99196.38;;;24.10;38.57
56074;BME280;41950;55.840;37.442;2023-07-09T08:14:23;99183.84;;;24.23;39.16
56074;BME280;41950;55.840;37.442;2023-07-09T08:16:48;99171.28;;;24.25;39.98
56074;BME280;41950;55.840;37.442;2023-07-09T08:19:18;99179.22;;;24.36;39.27
56074;BME280;41950;55.840;37.442;2023-07-09T08:21:45;99179.53;;;24.54;39.62
56074;BME280;41950;55.840;37.442;2023-07-09T08:24:11;99176.09;;;24.63;38.54
56074;BME280;41950;55.840;37.442;2023-07-09T08:26:37;99172.31;;;24.77;38.78
56074;BME280;41950;55.840;37.442;2023-07-09T08:29:03;99172.38;;;24.86;37.49
56074;BME280;41950;55.840;37.442;2023-07-09T08:31:30;99184.41;;;24.90;37.17
56074;BME280;41950;55.840;37.442;2023-07-09T08:33:56;99187.69;;;24.94;37.13
56074;BME280;41950;55.840;37.442;2023-07-09T08:36:22;99179.25;;;24.89;36.01
56074;BME280;41950;55.840;37.442;2023-07-09T08:38:48;99172.63;;;24.83;36.57
56074;BME280;41950;55.840;37.442;2023-07-09T08:41:26;99151.66;;;24.80;36.64
56074;BME280;41950;55.840;37.442;2023-07-09T08:46:48;99159.88;;;25.19;36.61
56074;BME280;41950;55.840;37.442;2023-07-09T08:49:41;99160.81;;;25.08;36.51
56074;BME280;41950;55.840;37.442;2023-07-09T08:52:29;99149.72;;;24.82;36.30
56074;BME280;41950;55.840;37.442;2023-07-09T08:54:59;99151.94;;;24.77;36.68
56074;BME280;41950;55.840;37.442;2023-07-09T08:57:35;99156.06;;;24.70;37.39
56074;BME280;41950;55.840;37.442;2023-07-09T09:02:39;99134.97;;;24.37;37.97
56074;BME280;41950;55.840;37.442;2023-07-09T09:05:07;99158.84;;;24.37;38.14
56074;BME280;41950;55.840;37.442;2023-07-09T09:07:41;99138.81;;;24.12;38.18
56074;BME280;41950;55.840;37.442;2023-07-09T09:10:13;99148.75;;;23.87;38.96
56074;BME280;41950;55.840;37.442;2023-07-09T09:13:01;99144.28;;;23.77;40.12
56074;BME280;41950;55.840;37.442;2023-07-09T09:15:31;99129.47;;;23.52;40.15
56074;BME280;41950;55.840;37.442;2023-07-09T09:18:10;99124.06;;;23.42;40.19
56074;BME280;41950;55.840;37.442;2023-07-09T09:20:40;99124.69;;;23.57;40.69
56074;BME280;41950;55.840;37.442;2023-07-09T09:25:33;99106.94;;;24.55;38.64
56074;BME280;41950;55.840;37.442;2023-07-09T09:28:01;99106.34;;;24.93;37.35
56074;BME280;41950;55.840;37.442;2023-07-09T09:30:28;99120.56;;;25.43;37.88
56074;BME280;41950;55.840;37.442;2023-07-09T09:32:58;99127.00;;;25.71;37.89
56074;BME280;41950;55.840;37.442;2023-07-09T09:35:32;99120.88;;;25.90;35.32
56074;BME280;41950;55.840;37.442;2023-07-09T09:37:59;99100.19;;;25.84;35.65
56074;BME280;41950;55.840;37.442;2023-07-09T09:40:28;99118.50;;;25.77;34.06
56074;BME280;41950;55.840;37.442;2023-07-09T09:42:57;99111.69;;;25.54;34.03
56074;BME280;41950;55.840;37.442;2023-07-09T09:45:28;99112.00;;;25.30;34.36
56074;BME280;41950;55.840;37.442;2023-07-09T09:48:00;99122.53;;;25.11;35.31
56074;BME280;41950;55.840;37.442;2023-07-09T09:50:31;99102.38;;;24.99;35.51
56074;BME280;41950;55.840;37.442;2023-07-09T09:53:07;99089.53;;;25.04;35.57
56074;BME280;41950;55.840;37.442;2023-07-09T09:55:33;99119.00;;;25.31;35.63
56074;BME280;41950;55.840;37.442;2023-07-09T09:58:00;99108.72;;;25.78;36.04
56074;BME280;41950;55.840;37.442;2023-07-09T10:00:29;99103.31;;;26.47;35.48
56074;BME280;41950;55.840;37.442;2023-07-09T10:03:01;99086.66;;;27.21;35.38
56074;BME280;41950;55.840;37.442;2023-07-09T10:05:43;99098.88;;;28.14;32.95
56074;BME280;41950;55.840;37.442;2023-07-09T10:08:38;99109.13;;;28.36;32.23
56074;BME280;41950;55.840;37.442;2023-07-09T10:11:28;99104.50;;;27.38;33.11
56074;BME280;41950;55.840;37.442;2023-07-09T10:16:45;99105.56;;;26.42;34.44
56074;BME280;41950;55.840;37.442;2023-07-09T10:19:31;99093.59;;;27.31;33.19
56074;BME280;41950;55.840;37.442;2023-07-09T10:22:39;99104.47;;;28.02;32.92
56074;BME280;41950;55.840;37.442;2023-07-09T10:28:04;99091.81;;;28.58;31.47
56074;BME280;41950;55.840;37.442;2023-07-09T10:30:38;99094.16;;;29.39;31.02
56074;BME280;41950;55.840;37.442;2023-07-09T10:33:12;99096.47;;;30.18;29.88
56074;BME280;41950;55.840;37.442;2023-07-09T10:38:22;99038.22;;;30.28;29.30
56074;BME280;41950;55.840;37.442;2023-07-09T10:40:55;99071.59;;;29.75;29.77
56074;BME280;41950;55.840;37.442;2023-07-09T10:43:38;99081.66;;;29.05;31.68
56074;BME280;41950;55.840;37.442;2023-07-09T10:46:28;99085.53;;;28.67;32.69
56074;BME280;41950;55.840;37.442;2023-07-09T10:48:56;99081.38;;;29.24;32.01
56074;BME280;41950;55.840;37.442;2023-07-09T10:51:26;99082.94;;;29.01;30.64
56074;BME280;41950;55.840;37.442;2023-07-09T10:56:38;99070.28;;;27.43;32.38
56074;BME280;41950;55.840;37.442;2023-07-09T10:59:31;99083.72;;;27.14;33.52
56074;BME280;41950;55.840;37.442;2023-07-09T11:02:17;99087.00;;;27.35;34.21
56074;BME280;41950;55.840;37.442;2023-07-09T11:04:52;99077.69;;;28.48;32.65
56074;BME280;41950;55.840;37.442;2023-07-09T11:07:33;99076.84;;;29.51;30.53
56074;BME280;41950;55.840;37.442;2023-07-09T11:10:05;99073.00;;;30.04;30.29
56074;BME280;41950;55.840;37.442;2023-07-09T11:15:16;99068.16;;;29.49;30.18
56074;BME280;41950;55.840;37.442;2023-07-09T11:17:45;99059.94;;;28.39;30.69
56074;BME280;41950;55.840;37.442;2023-07-09T11:20:36;99068.72;;;27.95;31.20
56074;BME280;41950;55.840;37.442;2023-07-09T11:23:18;99060.06;;;27.66;31.52
56074;BME280;41950;55.840;37.442;2023-07-09T11:25:47;99074.63;;;27.89;30.47
56074;BME280;41950;55.840;37.442;2023-07-09T11:28:13;99063.03;;;28.26;29.92
56074;BME280;41950;55.840;37.442;2023-07-09T11:30:51;99025.34;;;28.29;30.39
56074;BME280;41950;55.840;37.442;2023-07-09T11:33:27;99048.66;;;28.71;28.81
56074;BME280;41950;55.840;37.442;2023-07-09T11:36:10;99041.97;;;28.23;29.86
56074;BME280;41950;55.840;37.442;2023-07-09T11:38:40;99059.41;;;28.17;29.50
56074;BME280;41950;55.840;37.442;2023-07-09T11:41:42;99038.25;;;27.98;30.29
56074;BME280;41950;55.840;37.442;2023-07-09T11:44:22;99053.19;;;28.26;30.40
56074;BME280;41950;55.840;37.442;2023-07-09T11:49:34;99070.25;;;27.16;32.74
56074;BME280;41950;55.840;37.442;2023-07-09T11:52:05;99060.06;;;26.35;33.69
56074;BME280;41950;55.840;37.442;2023-07-09T11:54:35;99062.13;;;26.12;34.57
56074;BME280;41950;55.840;37.442;2023-07-09T11:57:02;99059.88;;;25.98;34.62
56074;BME280;41950;55.840;37.442;2023-07-09T11:59:28;99046.72;;;25.87;35.35
56074;BME280;41950;55.840;37.442;2023-07-09T12:01:54;99056.84;;;26.03;35.70
56074;BME280;41950;55.840;37.442;2023-07-09T12:04:31;99051.22;;;26.15;35.29
56074;BME280;41950;55.840;37.442;2023-07-09T12:07:00;99051.91;;;26.17;35.18
56074;BME280;41950;55.840;37.442;2023-07-09T12:09:41;99049.69;;;26.42;35.74
56074;BME280;41950;55.840;37.442;2023-07-09T12:12:20;99045.31;;;26.51;34.02
56074;BME280;41950;55.840;37.442;2023-07-09T12:14:46;99052.19;;;26.53;34.17
56074;BME280;41950;55.840;37.442;2023-07-09T12:17:12;99046.84;;;26.63;34.12
56074;BME280;41950;55.840;37.442;2023-07-09T12:19:38;99041.38;;;27.11;33.39
56074;BME280;41950;55.840;37.442;2023-07-09T12:22:06;99045.84;;;27.93;34.67
56074;BME280;41950;55.840;37.442;2023-07-09T12:24:38;99034.06;;;28.21;32.13
56074;BME280;41950;55.840;37.442;2023-07-09T12:27:19;99014.38;;;28.32;31.68
56074;BME280;41950;55.840;37.442;2023-07-09T12:29:45;99020.97;;;28.46;31.35
56074;BME280;41950;55.840;37.442;2023-07-09T12:32:14;99030.09;;;28.61;32.15
56074;BME280;41950;55.840;37.442;2023-07-09T12:34:40;99031.88;;;28.52;31.84
56074;BME280;41950;55.840;37.442;2023-07-09T12:37:11;99013.25;;;28.43;30.14
56074;BME280;41950;55.840;37.442;2023-07-09T12:39:38;99028.09;;;28.01;31.42
56074;BME280;41950;55.840;37.442;2023-07-09T12:42:04;99042.13;;;27.58;32.09
56074;BME280;41950;55.840;37.442;2023-07-09T12:44:33;99033.81;;;27.16;32.56
56074;BME280;41950;55.840;37.442;2023-07-09T12:47:01;99032.53;;;27.10;33.98
56074;BME280;41950;55.840;37.442;2023-07-09T12:49:30;99019.53;;;27.07;33.33
56074;BME280;41950;55.840;37.442;2023-07-09T12:52:02;99010.47;;;26.91;33.79
56074;BME280;41950;55.840;37.442;2023-07-09T12:54:30;99011.84;;;26.95;35.62
56074;BME280;41950;55.840;37.442;2023-07-09T12:56:59;99003.31;;;27.01;34.69
56074;BME280;41950;55.840;37.442;2023-07-09T12:59:38;99000.13;;;26.88;34.00
56074;BME280;41950;55.840;37.442;2023-07-09T13:02:19;99022.50;;;27.04;35.27
56074;BME280;41950;55.840;37.442;2023-07-09T13:04:45;99008.53;;;27.20;36.02
56074;BME280;41950;55.840;37.442;2023-07-09T13:07:26;99014.47;;;27.42;35.42
56074;BME280;41950;55.840;37.442;2023-07-09T13:09:54;99019.34;;;27.46;34.03
56074;BME280;41950;55.840;37.442;2023-07-09T13:12:28;99011.50;;;27.45;34.30
56074;BME280;41950;55.840;37.442;2023-07-09T13:14:55;99004.97;;;27.29;34.70
56074;BME280;41950;55.840;37.442;2023-07-09T13:17:21;99012.59;;;27.24;34.19
56074;BME280;41950;55.840;37.442;2023-07-09T13:19:47;98986.44;;;27.10;35.25
56074;BME280;41950;55.840;37.442;2023-07-09T13:22:18;99019.81;;;27.14;35.66
56074;BME280;41950;55.840;37.442;2023-07-09T13:24:45;99008.81;;;26.90;34.90
56074;BME280;41950;55.840;37.442;2023-07-09T13:27:12;99005.75;;;26.75;35.33
56074;BME280;41950;55.840;37.442;2023-07-09T13:29:39;99005.75;;;26.75;36.50